createdAt,value
2018-03-30T00:01:26.175Z,99.90
2018-03-30T00:03:53.643Z,99.90
2018-03-30T00:06:21.096Z,99.90
2018-03-30T00:08:48.551Z,99.90
2018-03-30T00:11:32.618Z,99.90
2018-03-30T00:14:00.073Z,99.90
2018-03-30T00:16:27.542Z,99.90
2018-03-30T00:18:55.006Z,99.90
2018-03-30T00:21:22.480Z,99.90
2018-03-30T00:23:49.942Z,99.90
2018-03-30T00:26:17.444Z,99.90
2018-03-30T00:28:44.924Z,99.90
2018-03-30T00:31:12.386Z,99.90
2018-03-30T00:33:39.867Z,99.90
2018-03-30T00:36:08.128Z,99.90
2018-03-30T00:38:35.635Z,99.90
2018-03-30T00:41:03.109Z,99.90
2018-03-30T00:43:30.591Z,99.90
2018-03-30T00:45:58.063Z,99.90
2018-03-30T00:48:25.601Z,99.90
2018-03-30T00:50:53.095Z,99.90
2018-03-30T00:53:32.416Z,99.90
2018-03-30T00:55:59.966Z,99.90
2018-03-30T00:58:27.451Z,99.90
2018-03-30T01:00:54.912Z,99.90
2018-03-30T01:03:22.418Z,99.90
2018-03-30T01:05:49.919Z,99.90
2018-03-30T01:08:17.422Z,99.90
2018-03-30T01:10:44.911Z,99.90
2018-03-30T01:13:12.384Z,99.90
2018-03-30T01:15:40.650Z,99.90
2018-03-30T01:18:08.142Z,99.90
2018-03-30T01:20:35.628Z,99.90
2018-03-30T01:23:03.119Z,99.90
2018-03-30T01:25:30.596Z,99.90
2018-03-30T01:27:58.136Z,99.90
2018-03-30T01:30:25.605Z,99.90
2018-03-30T01:32:53.079Z,99.90
2018-03-30T01:35:20.538Z,99.90
2018-03-30T01:37:48.034Z,99.90
2018-03-30T01:40:15.522Z,99.90
2018-03-30T01:42:43.099Z,99.90
2018-03-30T01:45:10.589Z,99.90
2018-03-30T01:47:38.085Z,99.90
2018-03-30T01:50:05.575Z,99.90
2018-03-30T01:52:33.827Z,99.90
2018-03-30T01:55:01.328Z,99.90
2018-03-30T01:57:28.801Z,99.90
2018-03-30T01:59:56.295Z,99.90
2018-03-30T02:02:24.550Z,99.90
2018-03-30T02:04:52.033Z,99.90
2018-03-30T02:07:20.292Z,99.90
2018-03-30T02:09:47.821Z,99.90
2018-03-30T02:12:15.331Z,99.90
2018-03-30T02:14:43.602Z,99.90
2018-03-30T02:17:11.078Z,99.90
2018-03-30T02:19:39.336Z,99.90
2018-03-30T02:22:06.806Z,99.90
2018-03-30T02:24:35.113Z,99.90
2018-03-30T02:27:03.323Z,99.90
2018-03-30T02:29:30.800Z,99.90
2018-03-30T02:31:58.277Z,99.90
2018-03-30T02:34:25.770Z,99.90
2018-03-30T02:36:53.297Z,99.90
2018-03-30T02:39:21.563Z,99.90
2018-03-30T02:41:49.821Z,99.90
2018-03-30T02:44:17.323Z,99.90
2018-03-30T02:46:44.839Z,99.90
2018-03-30T02:49:12.304Z,99.90
2018-03-30T02:51:39.808Z,99.90
2018-03-30T02:54:07.272Z,99.90
2018-03-30T02:56:34.747Z,99.90
2018-03-30T02:59:02.203Z,99.90
2018-03-30T03:01:29.699Z,99.90
2018-03-30T03:03:57.964Z,99.90
2018-03-30T03:06:25.426Z,99.90
2018-03-30T03:08:52.939Z,99.90
2018-03-30T03:11:20.431Z,99.90
2018-03-30T03:13:47.894Z,99.90
2018-03-30T03:16:15.425Z,99.90
2018-03-30T03:18:42.898Z,99.90
2018-03-30T03:21:10.367Z,99.90
2018-03-30T03:23:38.635Z,99.90
2018-03-30T03:26:06.123Z,99.90
2018-03-30T03:28:33.635Z,99.90
2018-03-30T03:31:01.134Z,99.90
2018-03-30T03:33:28.632Z,99.90
2018-03-30T03:35:56.122Z,99.90
2018-03-30T03:38:24.401Z,99.90
2018-03-30T03:40:51.886Z,99.90
2018-03-30T03:43:19.398Z,99.90
2018-03-30T03:45:46.903Z,99.90
2018-03-30T03:48:14.394Z,99.90
2018-03-30T03:50:41.895Z,99.90
2018-03-30T03:53:09.397Z,99.90
2018-03-30T03:55:36.870Z,99.90
2018-03-30T03:58:04.377Z,99.90
2018-03-30T04:00:32.626Z,99.90
2018-03-30T04:03:00.107Z,99.90
2018-03-30T04:05:28.398Z,99.90
2018-03-30T04:07:55.902Z,99.90
2018-03-30T04:10:23.490Z,99.90
2018-03-30T04:12:51.002Z,99.90
2018-03-30T04:15:18.492Z,99.90
2018-03-30T04:17:45.978Z,99.90
2018-03-30T04:20:13.454Z,99.90
2018-03-30T04:22:40.962Z,99.90
2018-03-30T04:25:08.433Z,99.90
2018-03-30T04:27:35.906Z,99.90
2018-03-30T04:30:03.497Z,99.90
2018-03-30T04:32:30.998Z,99.90
2018-03-30T04:34:58.483Z,99.90
2018-03-30T04:37:28.147Z,99.90
2018-03-30T04:39:55.901Z,99.90
2018-03-30T04:42:23.402Z,99.90
2018-03-30T04:44:50.914Z,99.90
2018-03-30T04:47:18.413Z,99.90
2018-03-30T04:49:46.662Z,99.90
2018-03-30T04:52:14.203Z,99.90
2018-03-30T04:54:41.721Z,99.90
2018-03-30T04:57:09.188Z,99.90
2018-03-30T04:59:36.754Z,99.90
2018-03-30T05:02:04.285Z,99.90
2018-03-30T05:04:32.572Z,99.90
2018-03-30T05:07:00.117Z,99.90
2018-03-30T05:09:27.664Z,99.90
2018-03-30T05:11:55.127Z,99.90
2018-03-30T05:14:22.661Z,99.90
2018-03-30T05:16:50.111Z,99.90
2018-03-30T05:19:17.594Z,99.90
2018-03-30T05:21:45.096Z,99.90
2018-03-30T05:24:12.642Z,99.90
2018-03-30T05:26:40.400Z,99.90
2018-03-30T05:29:07.929Z,99.90
2018-03-30T05:31:35.422Z,99.90
2018-03-30T05:34:02.966Z,99.90
2018-03-30T05:36:31.252Z,99.90
2018-03-30T05:38:58.753Z,99.90
2018-03-30T05:41:26.242Z,99.90
2018-03-30T05:43:53.705Z,99.90
2018-03-30T05:46:21.178Z,99.90
2018-03-30T05:48:51.814Z,99.90
2018-03-30T05:51:19.307Z,99.90
2018-03-30T05:53:47.006Z,99.90
2018-03-30T05:56:15.678Z,99.90
2018-03-30T05:58:43.343Z,99.90
2018-03-30T06:01:26.701Z,99.90
2018-03-30T06:03:55.258Z,99.90
2018-03-30T06:06:22.739Z,99.90
2018-03-30T06:08:52.899Z,99.90
2018-03-30T06:11:20.456Z,99.90
2018-03-30T06:13:47.935Z,99.90
2018-03-30T06:16:15.415Z,99.90
2018-03-30T06:18:42.890Z,99.90
2018-03-30T06:21:11.141Z,99.90
2018-03-30T06:23:38.638Z,99.90
2018-03-30T06:26:06.132Z,99.90
2018-03-30T06:28:33.609Z,99.90
2018-03-30T06:31:01.090Z,99.90
2018-03-30T06:33:29.404Z,99.90
2018-03-30T06:35:56.919Z,99.90
2018-03-30T06:38:24.385Z,99.90
2018-03-30T06:40:51.889Z,99.90
2018-03-30T06:43:19.389Z,99.90
2018-03-30T06:45:47.666Z,99.90
2018-03-30T06:48:15.133Z,99.90
2018-03-30T06:50:43.397Z,99.90
2018-03-30T06:53:10.873Z,99.90
2018-03-30T06:55:39.133Z,99.90
2018-03-30T06:58:07.416Z,99.90
2018-03-30T07:00:35.646Z,99.90
2018-03-30T07:03:03.143Z,99.90
2018-03-30T07:05:30.663Z,99.90
2018-03-30T07:07:59.157Z,99.90
2018-03-30T07:10:26.663Z,99.90
2018-03-30T07:12:54.199Z,99.90
2018-03-30T07:15:21.781Z,99.90
2018-03-30T07:17:49.269Z,99.90
2018-03-30T07:20:16.782Z,99.90
2018-03-30T07:22:45.171Z,99.90
2018-03-30T07:25:12.685Z,99.90
2018-03-30T07:27:40.183Z,99.90
2018-03-30T07:30:07.705Z,99.90
2018-03-30T07:32:35.194Z,99.90
2018-03-30T07:35:02.771Z,99.90
2018-03-30T07:37:30.333Z,99.90
2018-03-30T07:39:57.887Z,99.90
2018-03-30T07:42:25.477Z,99.90
2018-03-30T07:44:52.978Z,99.90
2018-03-30T07:47:20.503Z,99.90
2018-03-30T07:49:48.023Z,99.90
2018-03-30T07:52:15.528Z,99.90
2018-03-30T07:54:43.025Z,99.90
2018-03-30T07:57:10.555Z,99.90
2018-03-30T07:59:38.102Z,99.90
2018-03-30T08:02:05.769Z,99.90
2018-03-30T08:04:33.513Z,99.90
2018-03-30T08:07:01.000Z,99.90
2018-03-30T08:09:28.517Z,99.90
2018-03-30T08:11:56.011Z,99.90
2018-03-30T08:14:23.612Z,99.90
2018-03-30T08:16:51.106Z,99.90
2018-03-30T08:19:18.691Z,99.90
2018-03-30T08:21:46.260Z,99.90
2018-03-30T08:24:13.932Z,99.90
2018-03-30T08:26:41.422Z,99.90
2018-03-30T08:29:09.045Z,99.90
2018-03-30T08:31:37.426Z,99.90
2018-03-30T08:34:05.312Z,99.90
2018-03-30T08:36:32.833Z,99.90
2018-03-30T08:39:00.314Z,99.90
2018-03-30T08:41:28.324Z,99.90
2018-03-30T08:43:55.843Z,99.90
2018-03-30T08:46:24.092Z,99.90
2018-03-30T08:48:51.585Z,99.90
2018-03-30T08:51:19.138Z,99.90
2018-03-30T08:53:46.649Z,99.90
2018-03-30T08:56:14.270Z,99.90
2018-03-30T08:58:41.762Z,99.90
2018-03-30T09:01:10.272Z,99.90
2018-03-30T09:03:37.753Z,99.90
2018-03-30T09:06:05.239Z,99.90
2018-03-30T09:08:32.805Z,99.90
2018-03-30T09:11:00.380Z,99.90
2018-03-30T09:13:27.890Z,99.90
2018-03-30T09:15:55.411Z,99.90
2018-03-30T09:18:23.722Z,99.90
2018-03-30T09:20:51.255Z,99.90
2018-03-30T09:23:18.745Z,99.90
2018-03-30T09:25:46.268Z,99.90
2018-03-30T09:28:13.835Z,99.90
2018-03-30T09:30:41.397Z,99.90
2018-03-30T09:33:15.218Z,99.90
2018-03-30T09:35:42.696Z,99.90
2018-03-30T09:38:10.201Z,99.90
2018-03-30T09:40:37.720Z,99.90
2018-03-30T09:43:05.247Z,99.90
2018-03-30T09:45:32.748Z,99.90
2018-03-30T09:48:00.237Z,99.90
2018-03-30T09:50:27.724Z,99.90
2018-03-30T09:52:56.023Z,99.90
2018-03-30T09:55:23.538Z,99.90
2018-03-30T09:57:51.054Z,99.90
2018-03-30T10:00:21.278Z,99.90
2018-03-30T10:02:48.738Z,99.90
2018-03-30T10:05:16.241Z,99.90
2018-03-30T10:07:43.719Z,99.90
2018-03-30T10:10:11.228Z,99.90
2018-03-30T10:12:38.734Z,99.90
2018-03-30T10:15:06.774Z,99.90
2018-03-30T10:20:24.733Z,99.90
2018-03-30T10:22:53.106Z,99.90
2018-03-30T10:25:20.567Z,99.90
2018-03-30T10:27:48.059Z,99.90
2018-03-30T10:30:15.616Z,99.90
2018-03-30T10:32:43.116Z,99.90
2018-03-30T10:35:10.695Z,99.90
2018-03-30T10:40:29.481Z,99.90
2018-03-30T10:42:56.947Z,99.90
2018-03-30T10:48:15.704Z,99.90
2018-03-30T10:50:43.224Z,99.90
2018-03-30T10:53:11.558Z,99.90
2018-03-30T10:55:39.066Z,99.90
2018-03-30T10:58:06.589Z,99.90
2018-03-30T11:00:34.103Z,99.90
2018-03-30T11:03:01.578Z,99.90
2018-03-30T11:05:29.900Z,99.90
2018-03-30T11:07:57.448Z,99.90
2018-03-30T11:10:25.019Z,99.90
2018-03-30T11:12:52.573Z,99.90
2018-03-30T11:15:20.247Z,99.90
2018-03-30T11:17:47.760Z,99.90
2018-03-30T11:20:15.992Z,99.90
2018-03-30T11:22:44.673Z,99.90
2018-03-30T11:25:12.199Z,99.90
2018-03-30T11:27:39.757Z,99.90
2018-03-30T11:30:07.588Z,99.90
2018-03-30T11:32:35.979Z,99.90
2018-03-30T11:35:03.610Z,99.90
2018-03-30T11:37:32.321Z,99.90
2018-03-30T11:39:59.931Z,99.90
2018-03-30T11:42:27.604Z,99.90
2018-03-30T11:44:55.245Z,99.90
2018-03-30T11:47:22.810Z,99.90
2018-03-30T11:49:54.342Z,99.90
2018-03-30T11:52:23.055Z,99.90
2018-03-30T11:54:51.552Z,99.90
2018-03-30T11:57:21.240Z,99.90
2018-03-30T12:02:52.265Z,99.90
2018-03-30T12:05:20.515Z,99.90
2018-03-30T12:07:48.444Z,99.90
2018-03-30T12:10:16.107Z,99.90
2018-03-30T12:12:46.701Z,99.90
2018-03-30T12:15:15.131Z,99.90
2018-03-30T12:17:42.595Z,99.90
2018-03-30T12:22:59.778Z,99.80
2018-03-30T12:25:27.492Z,99.60
2018-03-30T12:27:55.116Z,99.80
2018-03-30T12:30:28.792Z,99.60
2018-03-30T13:29:29.356Z,98.40
2018-03-30T13:31:56.846Z,98.30
2018-03-30T13:34:24.794Z,98.50
2018-03-30T13:36:52.376Z,98.60
2018-03-30T13:39:21.375Z,98.20
2018-03-30T13:41:50.788Z,98.10
2018-03-30T13:44:18.322Z,98.10
2018-03-30T13:46:48.030Z,97.90
2018-03-30T13:49:17.123Z,97.60
2018-03-30T13:51:48.378Z,97.50
2018-03-30T13:54:16.710Z,97.70
2018-03-30T13:56:54.517Z,97.70
2018-03-30T13:59:23.765Z,97.20
2018-03-30T14:05:02.168Z,96.90
2018-03-30T14:08:06.881Z,97.30
2018-03-30T14:10:47.944Z,97.40
2018-03-30T14:13:15.408Z,98.00
2018-03-30T14:15:47.282Z,97.60
2018-03-30T14:18:29.930Z,97.80
2018-03-30T14:21:05.766Z,97.40
2018-03-30T14:23:52.764Z,97.40
2018-03-30T14:26:29.666Z,97.10
2018-03-30T14:29:02.146Z,97.10
2018-03-30T14:31:47.359Z,97.50
2018-03-30T14:34:14.887Z,97.00
2018-03-30T14:36:45.852Z,96.80
2018-03-30T14:39:19.997Z,96.80
2018-03-30T14:41:47.586Z,96.80
2018-03-30T14:44:18.716Z,96.70
2018-03-30T14:46:48.054Z,96.70
2018-03-30T14:49:16.362Z,97.20
2018-03-30T14:51:44.746Z,97.00
2018-03-30T14:54:15.622Z,96.80
2018-03-30T14:56:50.510Z,97.10
2018-03-30T14:59:19.764Z,97.10
2018-03-30T15:02:08.295Z,97.00
2018-03-30T15:04:51.920Z,97.00
2018-03-30T15:07:25.290Z,96.90
2018-03-30T15:10:00.493Z,96.90
2018-03-30T15:12:31.984Z,96.60
2018-03-30T15:15:00.405Z,97.00
2018-03-30T15:17:36.175Z,97.20
2018-03-30T15:20:05.160Z,97.00
2018-03-30T15:22:34.276Z,96.80
2018-03-30T15:25:17.777Z,96.60
2018-03-30T15:27:46.770Z,96.90
2018-03-30T15:33:34.706Z,97.00
2018-03-30T15:36:04.596Z,97.30
2018-03-30T15:38:32.063Z,97.10
2018-03-30T15:40:59.563Z,97.10
2018-03-30T15:43:30.683Z,97.10
2018-03-30T15:46:00.828Z,97.10
2018-03-30T15:48:28.300Z,97.40
2018-03-30T15:51:02.562Z,97.30
2018-03-30T15:53:29.580Z,97.50
2018-03-30T15:55:57.046Z,96.90
2018-03-30T15:58:24.504Z,96.30
2018-03-30T16:00:52.339Z,96.60
2018-03-30T16:03:19.885Z,97.10
2018-03-30T16:05:47.456Z,96.40
2018-03-30T16:08:14.988Z,97.10
2018-03-30T16:10:46.305Z,96.80
2018-03-30T16:13:13.798Z,96.40
2018-03-30T16:15:42.084Z,96.30
2018-03-30T16:18:09.648Z,96.30
2018-03-30T16:20:36.707Z,96.70
2018-03-30T16:23:03.702Z,96.70
2018-03-30T16:25:31.068Z,96.80
2018-03-30T16:27:58.064Z,96.90
2018-03-30T16:30:25.104Z,96.90
2018-03-30T16:32:52.168Z,97.00
2018-03-30T16:35:19.398Z,97.40
2018-03-30T16:37:48.482Z,97.40
2018-03-30T16:40:17.054Z,97.50
2018-03-30T16:42:44.184Z,97.50
2018-03-30T16:45:13.295Z,97.60
2018-03-30T16:47:40.406Z,97.60
2018-03-30T16:50:07.547Z,97.60
2018-03-30T16:52:34.644Z,97.60
2018-03-30T16:55:02.461Z,97.90
2018-03-30T16:57:29.535Z,97.90
2018-03-30T16:59:56.527Z,97.90
2018-03-30T17:02:23.546Z,98.00
2018-03-30T17:04:50.581Z,98.00
2018-03-30T17:07:18.472Z,98.20
2018-03-30T17:09:45.772Z,98.30
2018-03-30T17:12:12.862Z,98.40
2018-03-30T17:14:40.699Z,98.90
2018-03-30T17:17:07.748Z,98.90
2018-03-30T17:19:34.766Z,99.40
2018-03-30T17:22:02.661Z,99.50
2018-03-30T17:24:29.706Z,99.40
2018-03-30T17:26:56.790Z,99.60
2018-03-30T17:29:23.822Z,99.80
2018-03-30T17:31:53.183Z,99.90
2018-03-30T17:52:20.192Z,99.90
2018-03-30T17:54:47.265Z,99.90
2018-03-30T17:57:14.295Z,99.90
2018-03-30T17:59:41.392Z,99.90
2018-03-30T18:04:45.411Z,99.90
2018-03-30T18:07:12.464Z,99.90
2018-03-30T18:09:39.526Z,99.90
2018-03-30T18:12:07.744Z,99.90
2018-03-30T18:14:34.758Z,99.90
2018-03-30T18:17:01.770Z,99.90
2018-03-30T18:19:28.758Z,99.90
2018-03-30T18:21:55.821Z,99.90
2018-03-30T18:24:22.840Z,99.90
2018-03-30T18:26:49.940Z,99.90
2018-03-30T18:29:16.991Z,99.90
2018-03-30T18:31:44.015Z,99.90
2018-03-30T18:34:11.200Z,99.90
2018-03-30T18:36:38.203Z,99.90
2018-03-30T18:39:05.223Z,99.90
2018-03-30T18:41:32.369Z,99.90
2018-03-30T18:43:59.365Z,99.90
2018-03-30T18:46:26.518Z,99.90
2018-03-30T18:48:53.549Z,99.90
2018-03-30T18:51:21.280Z,99.90
2018-03-30T18:53:48.302Z,99.90
2018-03-30T18:56:15.323Z,99.90
2018-03-30T18:58:42.545Z,99.90
2018-03-30T19:01:10.401Z,99.90
2018-03-30T19:03:37.899Z,99.90
2018-03-30T19:06:04.936Z,99.90
2018-03-30T19:08:32.018Z,99.90
2018-03-30T19:11:02.225Z,99.90
2018-03-30T19:13:29.250Z,99.90
2018-03-30T19:15:56.283Z,99.90
2018-03-30T19:18:23.260Z,99.90
2018-03-30T19:20:50.403Z,99.90
2018-03-30T19:23:18.370Z,99.90
2018-03-30T19:25:45.376Z,99.90
2018-03-30T19:28:12.359Z,99.90
2018-03-30T19:30:39.430Z,99.90
2018-03-30T19:33:06.450Z,99.90
2018-03-30T19:35:33.443Z,99.90
2018-03-30T19:38:01.499Z,99.90
2018-03-30T19:40:28.472Z,99.90
2018-03-30T19:42:55.483Z,99.90
2018-03-30T19:45:22.474Z,99.90
2018-03-30T19:47:49.477Z,99.90
2018-03-30T19:50:16.547Z,99.90
2018-03-30T19:52:43.574Z,99.90
2018-03-30T19:55:11.765Z,99.90
2018-03-30T19:57:38.756Z,99.90
2018-03-30T20:00:06.538Z,99.90
2018-03-30T20:02:33.559Z,99.90
2018-03-30T20:05:00.558Z,99.90
2018-03-30T20:07:28.752Z,99.90
2018-03-30T20:09:56.534Z,99.90
2018-03-30T20:12:23.539Z,99.90
2018-03-30T20:14:57.657Z,99.90
2018-03-30T20:17:25.463Z,99.90
2018-03-30T20:19:52.597Z,99.90
2018-03-30T20:22:20.418Z,99.90
2018-03-30T20:24:49.607Z,99.90
2018-03-30T20:27:16.725Z,99.90
2018-03-30T20:29:45.587Z,99.90
2018-03-30T20:32:12.715Z,99.90
2018-03-30T20:34:39.880Z,99.90
2018-03-30T20:37:06.879Z,99.90
2018-03-30T20:39:33.889Z,99.90
2018-03-30T20:42:00.876Z,99.90
2018-03-30T20:44:27.930Z,99.90
2018-03-30T20:46:54.980Z,99.90
2018-03-30T20:49:21.973Z,99.90
2018-03-30T20:51:49.029Z,99.90
2018-03-30T20:54:16.008Z,99.90
2018-03-30T20:56:43.084Z,99.90
2018-03-30T20:59:10.142Z,99.90
2018-03-30T21:01:37.145Z,99.90
2018-03-30T21:04:04.946Z,99.90
2018-03-30T21:06:31.932Z,99.90
2018-03-30T21:08:58.963Z,99.90
2018-03-30T21:11:25.977Z,99.90
2018-03-30T21:13:52.965Z,99.90
2018-03-30T21:16:19.986Z,99.90
2018-03-30T21:18:46.971Z,99.90
2018-03-30T21:21:16.689Z,99.90
2018-03-30T21:23:43.682Z,99.90
2018-03-30T21:26:10.665Z,99.90
2018-03-30T21:28:37.663Z,99.90
2018-03-30T21:31:04.659Z,99.90
2018-03-30T21:33:31.656Z,99.90
2018-03-30T21:35:58.759Z,99.90
2018-03-30T21:38:26.718Z,99.90
2018-03-30T21:40:53.742Z,99.90
2018-03-30T21:43:21.035Z,99.90
2018-03-30T21:45:48.080Z,99.90
2018-03-30T21:48:15.070Z,99.90
2018-03-30T21:50:42.071Z,99.90
2018-03-30T21:53:09.905Z,99.90
2018-03-30T21:55:36.949Z,99.90
2018-03-30T21:58:03.942Z,99.90
2018-03-30T22:00:30.950Z,99.90
2018-03-30T22:02:57.918Z,99.90
2018-03-30T22:05:25.663Z,99.90
2018-03-30T22:08:04.282Z,99.90
2018-03-30T22:10:31.649Z,99.90
2018-03-30T22:12:58.664Z,99.90
2018-03-30T22:15:25.658Z,99.90
2018-03-30T22:17:52.942Z,99.90
2018-03-30T22:20:20.149Z,99.90
2018-03-30T22:22:47.189Z,99.90
2018-03-30T22:25:14.236Z,99.90
2018-03-30T22:27:42.014Z,99.90
2018-03-30T22:30:09.047Z,99.90
2018-03-30T22:32:36.073Z,99.90
2018-03-30T22:35:03.202Z,99.90
2018-03-30T22:37:30.200Z,99.90
2018-03-30T22:39:57.309Z,99.90
2018-03-30T22:42:24.302Z,99.90
2018-03-30T22:44:51.321Z,99.90
2018-03-30T22:47:18.381Z,99.90
2018-03-30T22:49:45.316Z,99.90
2018-03-30T22:52:12.363Z,99.90
2018-03-30T22:54:39.422Z,99.90
2018-03-30T22:57:06.425Z,99.90
2018-03-30T22:59:33.449Z,99.90
2018-03-30T23:02:00.414Z,99.90
2018-03-30T23:04:27.406Z,99.90
2018-03-30T23:06:55.164Z,99.90
2018-03-30T23:09:22.186Z,99.90
2018-03-30T23:11:49.226Z,99.90
2018-03-30T23:14:17.040Z,99.90
2018-03-30T23:16:44.091Z,99.90
2018-03-30T23:19:11.115Z,99.90
2018-03-30T23:21:38.120Z,99.90
2018-03-30T23:24:05.108Z,99.90
2018-03-30T23:26:32.170Z,99.90
2018-03-30T23:28:59.178Z,99.90
2018-03-30T23:31:26.190Z,99.90
2018-03-30T23:33:53.203Z,99.90
2018-03-30T23:36:20.215Z,99.90
2018-03-30T23:38:47.192Z,99.90
2018-03-30T23:41:14.207Z,99.90
2018-03-30T23:43:41.214Z,99.90
2018-03-30T23:46:08.221Z,99.90
2018-03-30T23:48:35.247Z,99.90
2018-03-30T23:51:02.242Z,99.90
2018-03-30T23:53:29.263Z,99.90
2018-03-30T23:55:56.271Z,99.90
2018-03-30T23:58:36.509Z,99.90
